sensor_id;sensor_type;location;lat;lon;timestamp;pressure;altitude;pressure_sealevel;temperature;humidity
8366;BME280;4220;42.502;24.188;2023-02-24T00:01:10;95418.03;;;7.50;100.00
8366;BME280;4220;42.502;24.188;2023-02-24T00:03:38;95416.88;;;7.59;100.00
8366;BME280;4220;42.502;24.188;2023-02-24T00:06:10;95412.00;;;7.56;100.00
8366;BME280;4220;42.502;24.188;2023-02-24T00:08:37;95410.16;;;7.57;100.00
8366;BME280;4220;42.502;24.188;2023-02-24T00:11:09;95404.47;;;7.53;100.00
8366;BME280;4220;42.502;24.188;2023-02-24T00:13:38;95401.13;;;7.38;100.00
8366;BME280;4220;42.502;24.188;2023-02-24T00:16:06;95371.38;;;7.16;100.00
8366;BME280;4220;42.502;24.188;2023-02-24T00:18:33;95400.75;;;7.41;100.00
8366;BME280;4220;42.502;24.188;2023-02-24T00:21:07;95402.22;;;7.50;100.00
8366;BME280;4220;42.502;24.188;2023-02-24T00:23:35;95390.22;;;7.48;100.00
8366;BME280;4220;42.502;24.188;2023-02-24T00:26:05;95392.44;;;7.44;100.00
8366;BME280;4220;42.502;24.188;2023-02-24T00:28:33;95402.41;;;7.49;100.00
8366;BME280;4220;42.502;24.188;2023-02-24T00:31:06;95353.97;;;7.22;100.00
8366;BME280;4220;42.502;24.188;2023-02-24T00:33:34;95389.44;;;7.54;100.00
8366;BME280;4220;42.502;24.188;2023-02-24T00:36:09;95392.81;;;7.41;100.00
8366;BME280;4220;42.502;24.188;2023-02-24T00:38:37;95396.09;;;7.50;100.00
8366;BME280;4220;42.502;24.188;2023-02-24T00:41:08;95381.66;;;7.39;100.00
8366;BME280;4220;42.502;24.188;2023-02-24T00:43:39;95393.00;;;7.40;100.00
8366;BME280;4220;42.502;24.188;2023-02-24T00:46:13;95387.16;;;7.44;100.00
8366;BME280;4220;42.502;24.188;2023-02-24T00:48:43;95382.41;;;7.33;100.00
8366;BME280;4220;42.502;24.188;2023-02-24T00:51:12;95382.22;;;7.35;100.00
8366;BME280;4220;42.502;24.188;2023-02-24T00:53:41;95381.59;;;7.33;100.00
8366;BME280;4220;42.502;24.188;2023-02-24T00:56:10;95389.59;;;7.46;100.00
8366;BME280;4220;42.502;24.188;2023-02-24T00:58:37;95366.22;;;7.43;100.00
8366;BME280;4220;42.502;24.188;2023-02-24T01:01:09;95370.38;;;7.52;100.00
8366;BME280;4220;42.502;24.188;2023-02-24T01:03:39;95375.44;;;7.53;100.00
8366;BME280;4220;42.502;24.188;2023-02-24T01:06:07;95366.47;;;7.48;100.00
8366;BME280;4220;42.502;24.188;2023-02-24T01:08:34;95361.34;;;7.40;100.00
8366;BME280;4220;42.502;24.188;2023-02-24T01:11:08;95361.53;;;7.32;100.00
8366;BME280;4220;42.502;24.188;2023-02-24T01:13:51;95351.72;;;7.25;100.00
8366;BME280;4220;42.502;24.188;2023-02-24T01:16:19;95343.53;;;7.07;100.00
8366;BME280;4220;42.502;24.188;2023-02-24T01:18:47;95350.69;;;7.20;100.00
8366;BME280;4220;42.502;24.188;2023-02-24T01:21:14;95347.50;;;7.31;100.00
8366;BME280;4220;42.502;24.188;2023-02-24T01:23:42;95351.72;;;7.25;100.00
8366;BME280;4220;42.502;24.188;2023-02-24T01:26:10;95349.72;;;7.28;100.00
8366;BME280;4220;42.502;24.188;2023-02-24T01:28:37;95334.09;;;7.26;100.00
8366;BME280;4220;42.502;24.188;2023-02-24T01:31:05;95327.97;;;7.19;100.00
8366;BME280;4220;42.502;24.188;2023-02-24T01:33:32;95324.75;;;7.30;100.00
8366;BME280;4220;42.502;24.188;2023-02-24T01:36:14;95322.31;;;7.22;100.00
8366;BME280;4220;42.502;24.188;2023-02-24T01:38:42;95327.47;;;7.02;100.00
8366;BME280;4220;42.502;24.188;2023-02-24T01:41:11;95332.75;;;7.02;100.00
8366;BME280;4220;42.502;24.188;2023-02-24T01:44:01;95331.56;;;7.11;100.00
8366;BME280;4220;42.502;24.188;2023-02-24T01:46:31;95328.56;;;7.14;100.00
8366;BME280;4220;42.502;24.188;2023-02-24T01:49:02;95321.41;;;7.08;100.00
8366;BME280;4220;42.502;24.188;2023-02-24T01:51:38;95321.78;;;7.05;100.00
8366;BME280;4220;42.502;24.188;2023-02-24T01:54:08;95325.69;;;7.09;100.00
8366;BME280;4220;42.502;24.188;2023-02-24T01:56:37;95335.63;;;7.07;100.00
8366;BME280;4220;42.502;24.188;2023-02-24T01:59:07;95320.94;;;6.98;100.00
8366;BME280;4220;42.502;24.188;2023-02-24T02:01:35;95326.06;;;7.06;100.00
8366;BME280;4220;42.502;24.188;2023-02-24T02:04:14;95327.94;;;7.12;100.00
8366;BME280;4220;42.502;24.188;2023-02-24T02:06:45;95336.69;;;7.19;100.00
8366;BME280;4220;42.502;24.188;2023-02-24T02:09:14;95337.09;;;7.23;100.00
8366;BME280;4220;42.502;24.188;2023-02-24T02:11:41;95345.00;;;7.16;100.00
8366;BME280;4220;42.502;24.188;2023-02-24T02:14:13;95343.34;;;7.15;100.00
8366;BME280;4220;42.502;24.188;2023-02-24T02:16:49;95344.19;;;7.16;100.00
8366;BME280;4220;42.502;24.188;2023-02-24T02:19:39;95352.06;;;7.09;100.00
8366;BME280;4220;42.502;24.188;2023-02-24T02:22:25;95347.97;;;7.07;100.00
8366;BME280;4220;42.502;24.188;2023-02-24T02:24:56;95341.13;;;7.12;100.00
8366;BME280;4220;42.502;24.188;2023-02-24T02:27:52;95351.09;;;7.17;100.00
8366;BME280;4220;42.502;24.188;2023-02-24T02:30:43;95349.91;;;7.26;100.00
8366;BME280;4220;42.502;24.188;2023-02-24T02:33:41;95348.72;;;7.29;100.00
8366;BME280;4220;42.502;24.188;2023-02-24T02:36:15;95347.06;;;7.28;100.00
8366;BME280;4220;42.502;24.188;2023-02-24T02:38:52;95352.34;;;7.28;100.00
8366;BME280;4220;42.502;24.188;2023-02-24T02:41:25;95350.75;;;7.27;100.00
8366;BME280;4220;42.502;24.188;2023-02-24T02:44:03;95326.28;;;7.11;100.00
8366;BME280;4220;42.502;24.188;2023-02-24T02:46:37;95340.81;;;7.29;100.00
8366;BME280;4220;42.502;24.188;2023-02-24T02:49:13;95328.38;;;7.22;100.00
8366;BME280;4220;42.502;24.188;2023-02-24T02:51:44;95340.59;;;7.30;100.00
8366;BME280;4220;42.502;24.188;2023-02-24T02:54:19;95332.28;;;7.27;100.00
8366;BME280;4220;42.502;24.188;2023-02-24T02:56:51;95341.78;;;7.21;100.00
8366;BME280;4220;42.502;24.188;2023-02-24T02:59:21;95309.28;;;7.14;100.00
8366;BME280;4220;42.502;24.188;2023-02-24T03:01:51;95294.19;;;7.01;100.00
8366;BME280;4220;42.502;24.188;2023-02-24T03:04:22;95339.47;;;7.11;100.00
8366;BME280;4220;42.502;24.188;2023-02-24T03:06:55;95345.75;;;7.10;100.00
8366;BME280;4220;42.502;24.188;2023-02-24T03:09:25;95344.53;;;7.06;100.00
8366;BME280;4220;42.502;24.188;2023-02-24T03:11:56;95351.03;;;7.10;100.00
8366;BME280;4220;42.502;24.188;2023-02-24T03:14:28;95346.00;;;7.15;100.00
8366;BME280;4220;42.502;24.188;2023-02-24T03:16:58;95343.97;;;7.17;100.00
8366;BME280;4220;42.502;24.188;2023-02-24T03:19:33;95336.41;;;7.08;100.00
8366;BME280;4220;42.502;24.188;2023-02-24T03:22:06;95342.50;;;7.08;100.00
8366;BME280;4220;42.502;24.188;2023-02-24T03:24:36;95348.56;;;7.02;100.00
8366;BME280;4220;42.502;24.188;2023-02-24T03:27:07;95341.28;;;7.04;100.00
8366;BME280;4220;42.502;24.188;2023-02-24T03:29:42;95345.75;;;7.10;100.00
8366;BME280;4220;42.502;24.188;2023-02-24T03:32:12;95342.03;;;6.98;100.00
8366;BME280;4220;42.502;24.188;2023-02-24T03:34:47;95344.44;;;6.93;100.00
8366;BME280;4220;42.502;24.188;2023-02-24T03:37:16;95345.22;;;6.87;100.00
8366;BME280;4220;42.502;24.188;2023-02-24T03:39:50;95344.44;;;6.93;100.00
8366;BME280;4220;42.502;24.188;2023-02-24T03:42:19;95329.63;;;6.92;100.00
8366;BME280;4220;42.502;24.188;2023-02-24T03:44:46;95337.38;;;7.00;100.00
8366;BME280;4220;42.502;24.188;2023-02-24T03:47:15;95333.72;;;6.95;100.00
8366;BME280;4220;42.502;24.188;2023-02-24T03:49:46;95328.84;;;6.98;100.00
8366;BME280;4220;42.502;24.188;2023-02-24T03:52:24;95322.72;;;6.91;100.00
8366;BME280;4220;42.502;24.188;2023-02-24T03:55:20;95329.63;;;6.92;100.00
8366;BME280;4220;42.502;24.188;2023-02-24T03:58:03;95325.31;;;6.85;100.00
8366;BME280;4220;42.502;24.188;2023-02-24T04:00:38;95314.09;;;6.76;100.00
8366;BME280;4220;42.502;24.188;2023-02-24T04:03:18;95331.66;;;6.90;100.00
8366;BME280;4220;42.502;24.188;2023-02-24T04:06:00;95326.28;;;6.77;100.00
8366;BME280;4220;42.502;24.188;2023-02-24T04:08:38;95324.63;;;6.76;100.00
8366;BME280;4220;42.502;24.188;2023-02-24T04:11:11;95331.09;;;6.74;100.00
8366;BME280;4220;42.502;24.188;2023-02-24T04:13:44;95321.59;;;6.73;100.00
8366;BME280;4220;42.502;24.188;2023-02-24T04:16:15;95335.66;;;6.86;100.00
8366;BME280;4220;42.502;24.188;2023-02-24T04:18:54;95324.47;;;6.78;100.00
8366;BME280;4220;42.502;24.188;2023-02-24T04:21:26;95334.75;;;6.73;100.00
8366;BME280;4220;42.502;24.188;2023-02-24T04:23:56;95329.88;;;6.70;100.00
8366;BME280;4220;42.502;24.188;2023-02-24T04:26:25;95311.88;;;6.73;100.00
8366;BME280;4220;42.502;24.188;2023-02-24T04:28:54;95324.41;;;6.71;100.00
8366;BME280;4220;42.502;24.188;2023-02-24T04:31:24;95313.47;;;6.74;100.00
8366;BME280;4220;42.502;24.188;2023-02-24T04:33:51;95311.38;;;6.63;100.00
8366;BME280;4220;42.502;24.188;2023-02-24T04:36:19;95299.06;;;6.42;100.00
8366;BME280;4220;42.502;24.188;2023-02-24T04:38:48;95300.63;;;6.37;100.00
8366;BME280;4220;42.502;24.188;2023-02-24T04:41:15;95301.03;;;6.34;100.00
8366;BME280;4220;42.502;24.188;2023-02-24T04:43:46;95296.78;;;6.39;100.00
8366;BME280;4220;42.502;24.188;2023-02-24T04:46:15;95303.31;;;6.43;100.00
8366;BME280;4220;42.502;24.188;2023-02-24T04:48:42;95301.09;;;6.47;100.00
8366;BME280;4220;42.502;24.188;2023-02-24T04:51:09;95303.13;;;6.45;100.00
8366;BME280;4220;42.502;24.188;2023-02-24T04:53:37;95305.56;;;6.46;100.00
8366;BME280;4220;42.502;24.188;2023-02-24T04:56:06;95290.91;;;6.37;100.00
8366;BME280;4220;42.502;24.188;2023-02-24T04:58:35;95286.88;;;6.41;100.00
8366;BME280;4220;42.502;24.188;2023-02-24T05:01:06;95294.75;;;6.63;100.00
8366;BME280;4220;42.502;24.188;2023-02-24T05:03:35;95278.09;;;6.55;100.00
8366;BME280;4220;42.502;24.188;2023-02-24T05:06:02;95292.72;;;6.65;100.00
8366;BME280;4220;42.502;24.188;2023-02-24T05:08:31;95283.25;;;6.70;100.00
8366;BME280;4220;42.502;24.188;2023-02-24T05:10:59;95296.13;;;6.86;100.00
8366;BME280;4220;42.502;24.188;2023-02-24T05:13:30;95293.09;;;6.89;100.00
8366;BME280;4220;42.502;24.188;2023-02-24T05:15:59;95290.38;;;6.76;100.00
8366;BME280;4220;42.502;24.188;2023-02-24T05:18:28;95286.25;;;6.67;100.00
8366;BME280;4220;42.502;24.188;2023-02-24T05:21:04;95279.94;;;6.62;100.00
8366;BME280;4220;42.502;24.188;2023-02-24T05:23:51;95292.84;;;6.78;100.00
8366;BME280;4220;42.502;24.188;2023-02-24T05:26:20;95296.50;;;6.83;100.00
8366;BME280;4220;42.502;24.188;2023-02-24T05:28:51;95298.72;;;6.80;100.00
8366;BME280;4220;42.502;24.188;2023-02-24T05:31:20;95226.00;;;6.30;100.00
8366;BME280;4220;42.502;24.188;2023-02-24T05:33:52;95260.50;;;6.63;100.00
8366;BME280;4220;42.502;24.188;2023-02-24T05:36:21;95295.34;;;6.92;100.00
8366;BME280;4220;42.502;24.188;2023-02-24T05:38:50;95293.94;;;6.90;100.00
8366;BME280;4220;42.502;24.188;2023-02-24T05:41:23;95290.81;;;6.80;100.00
8366;BME280;4220;42.502;24.188;2023-02-24T05:43:58;95297.28;;;6.77;100.00
8366;BME280;4220;42.502;24.188;2023-02-24T05:46:30;95303.56;;;6.76;100.00
8366;BME280;4220;42.502;24.188;2023-02-24T05:48:58;95302.47;;;6.64;100.00
8366;BME280;4220;42.502;24.188;2023-02-24T05:51:27;95304.13;;;6.72;100.00
8366;BME280;4220;42.502;24.188;2023-02-24T05:54:00;95290.72;;;6.67;100.00
8366;BME280;4220;42.502;24.188;2023-02-24T05:56:29;95295.81;;;6.68;100.00
8366;BME280;4220;42.502;24.188;2023-02-24T05:58:59;95305.16;;;6.71;100.00
8366;BME280;4220;42.502;24.188;2023-02-24T06:01:30;95315.13;;;6.75;100.00
8366;BME280;4220;42.502;24.188;2023-02-24T06:04:01;95319.22;;;6.84;100.00
8366;BME280;4220;42.502;24.188;2023-02-24T06:06:32;95304.56;;;6.75;100.00
8366;BME280;4220;42.502;24.188;2023-02-24T06:09:01;95315.50;;;6.72;100.00
8366;BME280;4220;42.502;24.188;2023-02-24T06:11:32;95308.25;;;6.81;100.00
8366;BME280;4220;42.502;24.188;2023-02-24T06:14:00;95310.97;;;6.94;100.00
8366;BME280;4220;42.502;24.188;2023-02-24T06:16:27;95310.78;;;6.95;100.00
8366;BME280;4220;42.502;24.188;2023-02-24T06:18:55;95294.53;;;6.92;100.00
8366;BME280;4220;42.502;24.188;2023-02-24T06:21:23;95311.78;;;6.94;100.00
8366;BME280;4220;42.502;24.188;2023-02-24T06:23:54;95298.59;;;6.94;100.00
8366;BME280;4220;42.502;24.188;2023-02-24T06:26:20;95304.13;;;6.99;100.00
8366;BME280;4220;42.502;24.188;2023-02-24T06:28:51;95314.91;;;7.04;100.00
8366;BME280;4220;42.502;24.188;2023-02-24T06:31:19;95313.25;;;7.03;100.00
8366;BME280;4220;42.502;24.188;2023-02-24T06:33:46;95317.47;;;6.98;100.00
8366;BME280;4220;42.502;24.188;2023-02-24T06:36:14;95275.81;;;6.80;100.00
8366;BME280;4220;42.502;24.188;2023-02-24T06:38:40;95314.28;;;7.02;100.00
8366;BME280;4220;42.502;24.188;2023-02-24T06:41:07;95311.44;;;7.04;100.00
8366;BME280;4220;42.502;24.188;2023-02-24T06:43:36;95306.84;;;7.12;100.00
8366;BME280;4220;42.502;24.188;2023-02-24T06:46:04;95312.97;;;7.19;100.00
8366;BME280;4220;42.502;24.188;2023-02-24T06:48:33;95301.38;;;7.20;100.00
8366;BME280;4220;42.502;24.188;2023-02-24T06:51:04;95312.16;;;7.25;100.00
8366;BME280;4220;42.502;24.188;2023-02-24T06:53:31;95313.19;;;7.24;100.00
8366;BME280;4220;42.502;24.188;2023-02-24T06:56:03;95315.41;;;7.28;100.00
8366;BME280;4220;42.502;24.188;2023-02-24T06:58:31;95312.16;;;7.25;100.00
8366;BME280;4220;42.502;24.188;2023-02-24T07:00:59;95313.00;;;7.33;100.00
8366;BME280;4220;42.502;24.188;2023-02-24T07:03:27;95281.47;;;7.11;100.00
8366;BME280;4220;42.502;24.188;2023-02-24T07:06:05;95310.78;;;7.30;100.00
8366;BME280;4220;42.502;24.188;2023-02-24T07:08:50;95307.72;;;7.33;100.00
8366;BME280;4220;42.502;24.188;2023-02-24T07:11:18;95305.47;;;7.23;100.00
8366;BME280;4220;42.502;24.188;2023-02-24T07:13:45;95199.22;;;6.54;100.00
8366;BME280;4220;42.502;24.188;2023-02-24T07:16:13;95286.94;;;7.10;100.00
8366;BME280;4220;42.502;24.188;2023-02-24T07:18:41;95303.78;;;7.15;100.00
8366;BME280;4220;42.502;24.188;2023-02-24T07:21:15;95289.00;;;7.14;100.00
8366;BME280;4220;42.502;24.188;2023-02-24T07:23:44;95267.81;;;7.01;100.00
8366;BME280;4220;42.502;24.188;2023-02-24T07:26:16;95302.22;;;7.28;100.00
8366;BME280;4220;42.502;24.188;2023-02-24T07:28:45;95292.31;;;7.30;100.00
8366;BME280;4220;42.502;24.188;2023-02-24T07:31:13;95293.16;;;7.37;100.00
8366;BME280;4220;42.502;24.188;2023-02-24T07:33:41;95298.25;;;7.45;100.00
8366;BME280;4220;42.502;24.188;2023-02-24T07:36:11;95304.16;;;7.47;100.00
8366;BME280;4220;42.502;24.188;2023-02-24T07:38:41;95281.81;;;7.43;100.00
8366;BME280;4220;42.502;24.188;2023-02-24T07:41:10;95280.81;;;7.50;100.00
8366;BME280;4220;42.502;24.188;2023-02-24T07:43:40;95294.88;;;7.64;100.00
8366;BME280;4220;42.502;24.188;2023-02-24T07:46:09;95248.94;;;7.45;100.00
8366;BME280;4220;42.502;24.188;2023-02-24T07:48:37;95239.19;;;7.46;100.00
8366;BME280;4220;42.502;24.188;2023-02-24T07:51:06;95282.34;;;7.85;100.00
8366;BME280;4220;42.502;24.188;2023-02-24T07:53:33;95263.44;;;7.75;100.00
8366;BME280;4220;42.502;24.188;2023-02-24T07:56:05;95277.28;;;7.97;100.00
8366;BME280;4220;42.502;24.188;2023-02-24T07:58:35;95280.53;;;7.99;100.00
8366;BME280;4220;42.502;24.188;2023-02-24T08:01:01;95277.63;;;7.68;100.00
8366;BME280;4220;42.502;24.188;2023-02-24T08:03:33;95275.28;;;7.32;100.00
8366;BME280;4220;42.502;24.188;2023-02-24T08:06:06;95276.22;;;7.18;100.00
8366;BME280;4220;42.502;24.188;2023-02-24T08:08:40;95265.66;;;7.18;100.00
8366;BME280;4220;42.502;24.188;2023-02-24T08:11:23;95251.34;;;7.34;100.00
8366;BME280;4220;42.502;24.188;2023-02-24T08:13:51;95273.72;;;7.51;100.00
8366;BME280;4220;42.502;24.188;2023-02-24T08:16:18;95261.97;;;7.60;100.00
8366;BME280;4220;42.502;24.188;2023-02-24T08:18:44;95263.19;;;7.57;100.00
8366;BME280;4220;42.502;24.188;2023-02-24T08:21:14;95256.66;;;7.47;100.00
8366;BME280;4220;42.502;24.188;2023-02-24T08:23:40;95258.88;;;7.50;100.00
8366;BME280;4220;42.502;24.188;2023-02-24T08:26:10;95255.81;;;7.40;100.00
8366;BME280;4220;42.502;24.188;2023-02-24T08:28:38;95254.34;;;7.31;100.00
8366;BME280;4220;42.502;24.188;2023-02-24T08:31:05;95255.97;;;6.84;100.00
8366;BME280;4220;42.502;24.188;2023-02-24T08:33:32;95262.78;;;6.72;100.00
8366;BME280;4220;42.502;24.188;2023-02-24T08:36:02;95260.34;;;6.71;100.00
8366;BME280;4220;42.502;24.188;2023-02-24T08:38:30;95278.22;;;6.75;100.00
8366;BME280;4220;42.502;24.188;2023-02-24T08:41:11;95270.75;;;6.51;100.00
8366;BME280;4220;42.502;24.188;2023-02-24T08:43:43;95246.47;;;6.55;100.00
8366;BME280;4220;42.502;24.188;2023-02-24T08:46:17;95240.50;;;6.75;100.00
8366;BME280;4220;42.502;24.188;2023-02-24T08:48:47;95253.81;;;7.01;100.00
8366;BME280;4220;42.502;24.188;2023-02-24T08:51:16;95250.03;;;7.16;100.00
8366;BME280;4220;42.502;24.188;2023-02-24T08:53:47;95247.06;;;7.33;100.00
8366;BME280;4220;42.502;24.188;2023-02-24T08:56:18;95250.13;;;7.43;100.00
8366;BME280;4220;42.502;24.188;2023-02-24T08:58:52;95247.72;;;7.48;100.00
8366;BME280;4220;42.502;24.188;2023-02-24T09:01:24;95252.59;;;7.51;100.00
8366;BME280;4220;42.502;24.188;2023-02-24T09:03:54;95257.94;;;7.64;100.00
8366;BME280;4220;42.502;24.188;2023-02-24T09:06:25;95245.34;;;7.72;100.00
8366;BME280;4220;42.502;24.188;2023-02-24T09:08:54;95249.84;;;7.85;100.00
8366;BME280;4220;42.502;24.188;2023-02-24T09:11:42;95250.66;;;7.99;100.00
8366;BME280;4220;42.502;24.188;2023-02-24T09:14:13;95253.72;;;8.02;100.00
8366;BME280;4220;42.502;24.188;2023-02-24T09:16:43;95208.22;;;7.80;100.00
8366;BME280;4220;42.502;24.188;2023-02-24T09:19:31;95250.69;;;8.05;100.00
8366;BME280;4220;42.502;24.188;2023-02-24T09:22:12;95245.81;;;8.02;100.00
8366;BME280;4220;42.502;24.188;2023-02-24T09:24:56;95246.63;;;8.09;100.00
8366;BME280;4220;42.502;24.188;2023-02-24T09:27:42;95242.16;;;8.16;100.00
8366;BME280;4220;42.502;24.188;2023-02-24T09:30:13;95240.56;;;8.28;100.00
8366;BME280;4220;42.502;24.188;2023-02-24T09:33:04;95242.22;;;8.42;100.00
8366;BME280;4220;42.502;24.188;2023-02-24T09:35:33;95236.72;;;8.37;100.00
8366;BME280;4220;42.502;24.188;2023-02-24T09:38:02;95237.31;;;8.52;100.00
8366;BME280;4220;42.502;24.188;2023-02-24T09:40:32;95243.00;;;8.69;100.00
8366;BME280;4220;42.502;24.188;2023-02-24T09:43:09;95241.53;;;8.80;100.00
8366;BME280;4220;42.502;24.188;2023-02-24T09:45:48;95243.56;;;8.91;100.00
8366;BME280;4220;42.502;24.188;2023-02-24T09:48:25;95244.94;;;9.00;100.00
8366;BME280;4220;42.502;24.188;2023-02-24T09:50:56;95248.41;;;9.00;100.00
8366;BME280;4220;42.502;24.188;2023-02-24T09:53:31;95200.63;;;8.82;100.00
8366;BME280;4220;42.502;24.188;2023-02-24T09:56:10;95232.75;;;8.99;100.00
8366;BME280;4220;42.502;24.188;2023-02-24T09:58:43;95243.47;;;9.17;100.00
8366;BME280;4220;42.502;24.188;2023-02-24T10:01:30;95231.75;;;8.93;100.00
8366;BME280;4220;42.502;24.188;2023-02-24T10:04:03;95219.38;;;8.81;100.00
8366;BME280;4220;42.502;24.188;2023-02-24T10:06:38;95217.50;;;9.01;100.00
8366;BME280;4220;42.502;24.188;2023-02-24T10:09:16;95176.41;;;8.98;100.00
8366;BME280;4220;42.502;24.188;2023-02-24T10:11:47;95208.34;;;9.41;100.00
8366;BME280;4220;42.502;24.188;2023-02-24T10:14:29;95209.28;;;9.60;100.00
8366;BME280;4220;42.502;24.188;2023-02-24T10:17:02;95200.47;;;9.66;100.00
8366;BME280;4220;42.502;24.188;2023-02-24T10:19:46;95161.66;;;9.53;100.00
8366;BME280;4220;42.502;24.188;2023-02-24T10:22:23;95199.00;;;9.76;100.00
8366;BME280;4220;42.502;24.188;2023-02-24T10:25:00;95189.16;;;9.90;100.00
8366;BME280;4220;42.502;24.188;2023-02-24T10:27:57;95174.59;;;9.99;100.00
8366;BME280;4220;42.502;24.188;2023-02-24T10:30:37;95181.31;;;10.02;100.00
8366;BME280;4220;42.502;24.188;2023-02-24T10:33:18;95171.81;;;10.19;100.00
8366;BME280;4220;42.502;24.188;2023-02-24T10:35:50;95150.22;;;10.15;100.00
8366;BME280;4220;42.502;24.188;2023-02-24T10:38:19;95163.03;;;10.43;100.00
8366;BME280;4220;42.502;24.188;2023-02-24T10:40:49;95155.91;;;10.43;100.00
8366;BME280;4220;42.502;24.188;2023-02-24T10:43:23;95120.00;;;10.23;100.00
8366;BME280;4220;42.502;24.188;2023-02-24T10:45:57;95145.22;;;10.50;100.00
8366;BME280;4220;42.502;24.188;2023-02-24T10:48:33;95145.81;;;10.52;100.00
8366;BME280;4220;42.502;24.188;2023-02-24T10:51:09;95146.34;;;10.61;100.00
8366;BME280;4220;42.502;24.188;2023-02-24T10:53:36;95094.63;;;10.33;100.00
8366;BME280;4220;42.502;24.188;2023-02-24T10:56:04;95139.06;;;10.74;100.00
8366;BME280;4220;42.502;24.188;2023-02-24T10:59:02;95130.16;;;10.69;100.00
8366;BME280;4220;42.502;24.188;2023-02-24T11:01:52;95128.31;;;10.87;100.00
8366;BME280;4220;42.502;24.188;2023-02-24T11:04:33;95122.19;;;10.87;100.00
8366;BME280;4220;42.502;24.188;2023-02-24T11:07:19;95111.56;;;10.87;100.00
8366;BME280;4220;42.502;24.188;2023-02-24T11:10:17;95116.13;;;10.80;100.00
8366;BME280;4220;42.502;24.188;2023-02-24T11:12:51;95116.66;;;10.70;100.00
8366;BME280;4220;42.502;24.188;2023-02-24T11:15:41;95111.19;;;10.47;100.00
8366;BME280;4220;42.502;24.188;2023-02-24T11:18:27;95123.22;;;10.25;100.00
8366;BME280;4220;42.502;24.188;2023-02-24T11:20:58;95101.00;;;10.26;100.00
8366;BME280;4220;42.502;24.188;2023-02-24T11:23:27;95112.38;;;10.51;100.00
8366;BME280;4220;42.502;24.188;2023-02-24T11:25:58;95111.44;;;10.64;100.00
8366;BME280;4220;42.502;24.188;2023-02-24T11:28:40;95099.50;;;10.73;100.00
8366;BME280;4220;42.502;24.188;2023-02-24T11:31:24;95091.53;;;10.91;100.00
8366;BME280;4220;42.502;24.188;2023-02-24T11:33:59;95091.00;;;11.00;100.00
8366;BME280;4220;42.502;24.188;2023-02-24T11:36:36;95090.38;;;11.16;100.00
8366;BME280;4220;42.502;24.188;2023-02-24T11:39:24;95079.09;;;11.33;100.00
8366;BME280;4220;42.502;24.188;2023-02-24T11:41:58;95079.75;;;11.46;100.00
8366;BME280;4220;42.502;24.188;2023-02-24T11:44:29;95084.06;;;11.59;100.00
8366;BME280;4220;42.502;24.188;2023-02-24T11:47:01;95079.88;;;11.63;100.00
8366;BME280;4220;42.502;24.188;2023-02-24T11:49:38;95073.75;;;11.62;100.00
8366;BME280;4220;42.502;24.188;2023-02-24T11:52:13;95078.78;;;11.82;100.00
8366;BME280;4220;42.502;24.188;2023-02-24T11:54:44;95073.72;;;11.92;100.00
8366;BME280;4220;42.502;24.188;2023-02-24T11:57:17;95073.41;;;11.89;100.00
8366;BME280;4220;42.502;24.188;2023-02-24T11:59:48;95057.09;;;11.97;100.00
8366;BME280;4220;42.502;24.188;2023-02-24T12:02:33;95049.25;;;12.13;100.00
8366;BME280;4220;42.502;24.188;2023-02-24T12:05:09;95051.78;;;12.43;100.00
8366;BME280;4220;42.502;24.188;2023-02-24T12:07:41;95052.75;;;12.77;100.00
8366;BME280;4220;42.502;24.188;2023-02-24T12:10:15;95055.41;;;13.05;100.00
8366;BME280;4220;42.502;24.188;2023-02-24T12:12:49;95052.44;;;13.01;100.00
8366;BME280;4220;42.502;24.188;2023-02-24T12:15:21;95052.09;;;12.98;100.00
8366;BME280;4220;42.502;24.188;2023-02-24T12:17:54;95040.97;;;13.01;100.00
8366;BME280;4220;42.502;24.188;2023-02-24T12:20:27;95038.47;;;12.83;100.00
8366;BME280;4220;42.502;24.188;2023-02-24T12:23:01;95039.66;;;12.87;100.00
8366;BME280;4220;42.502;24.188;2023-02-24T12:25:44;95023.06;;;12.96;100.00
8366;BME280;4220;42.502;24.188;2023-02-24T12:28:20;94990.47;;;12.78;100.00
8366;BME280;4220;42.502;24.188;2023-02-24T12:30:59;95015.03;;;13.08;100.00
8366;BME280;4220;42.502;24.188;2023-02-24T12:33:46;95009.38;;;13.04;100.00
8366;BME280;4220;42.502;24.188;2023-02-24T12:36:25;95015.47;;;13.05;100.00
8366;BME280;4220;42.502;24.188;2023-02-24T12:39:00;95013.13;;;13.20;100.00
8366;BME280;4220;42.502;24.188;2023-02-24T12:41:47;95009.72;;;13.36;100.00
8366;BME280;4220;42.502;24.188;2023-02-24T12:44:26;95010.75;;;13.52;100.00
8366;BME280;4220;42.502;24.188;2023-02-24T12:47:02;94991.28;;;13.51;100.00
8366;BME280;4220;42.502;24.188;2023-02-24T12:49:53;95000.03;;;13.63;100.00
8366;BME280;4220;42.502;24.188;2023-02-24T12:52:30;94998.50;;;13.67;100.00
8366;BME280;4220;42.502;24.188;2023-02-24T12:55:08;94993.13;;;13.34;100.00
8366;BME280;4220;42.502;24.188;2023-02-24T12:57:42;94987.84;;;13.06;100.00
8366;BME280;4220;42.502;24.188;2023-02-24T13:00:16;94991.81;;;12.64;100.00
8366;BME280;4220;42.502;24.188;2023-02-24T13:02:55;94946.25;;;12.20;100.00
8366;BME280;4220;42.502;24.188;2023-02-24T13:05:29;94988.91;;;12.25;100.00
8366;BME280;4220;42.502;24.188;2023-02-24T13:08:11;94949.03;;;12.02;100.00
8366;BME280;4220;42.502;24.188;2023-02-24T13:10:45;94977.97;;;12.38;100.00
8366;BME280;4220;42.502;24.188;2023-02-24T13:13:18;94968.06;;;12.45;100.00
8366;BME280;4220;42.502;24.188;2023-02-24T13:15:50;94958.41;;;12.56;100.00
8366;BME280;4220;42.502;24.188;2023-02-24T13:18:25;94958.84;;;12.65;100.00
8366;BME280;4220;42.502;24.188;2023-02-24T13:21:05;94961.69;;;12.75;100.00
8366;BME280;4220;42.502;24.188;2023-02-24T13:23:33;94954.75;;;12.74;100.00
8366;BME280;4220;42.502;24.188;2023-02-24T13:26:03;94955.09;;;12.77;100.00
8366;BME280;4220;42.502;24.188;2023-02-24T13:28:31;94952.47;;;12.94;100.00
8366;BME280;4220;42.502;24.188;2023-02-24T13:31:02;94934.41;;;12.96;100.00
8366;BME280;4220;42.502;24.188;2023-02-24T13:33:31;94945.81;;;13.08;100.00
8366;BME280;4220;42.502;24.188;2023-02-24T13:36:14;94952.41;;;13.05;100.00
8366;BME280;4220;42.502;24.188;2023-02-24T13:38:42;94941.72;;;12.89;100.00